Time;durP1;ratioP1;P1;durP2;ratioP2;P2;SDS_P1;SDS_P2;PMS_P1;PMS_P2;Temp;Humidity;BMP_temperature;BMP_pressure;BME280_temperature;BME280_humidity;BME280_pressure;Samples;Min_cycle;Max_cycle;Signal;HPM_P1;HPM_P2
2023/07/12 00:00:58;;;;;;;12.83;9.80;;;;;;;21.11;100.00;100591.94;4997057;28;20210;-72
2023/07/12 00:03:24;;;;;;;11.67;9.37;;;;;;;21.17;100.00;100586.53;5018356;28;20333;-72
2023/07/12 00:05:50;;;;;;;11.43;9.40;;;;;;;21.18;100.00;100582.16;4998413;28;20298;-72
2023/07/12 00:08:20;;;;;;;11.83;9.87;;;;;;;21.11;100.00;100568.50;4998882;28;20207;-72
2023/07/12 00:10:47;;;;;;;11.57;9.60;;;;;;;21.14;100.00;100563.19;4996463;28;20215;-72
2023/07/12 00:13:13;;;;;;;15.37;9.53;;;;;;;21.21;100.00;100569.06;5000272;28;20199;-72
2023/07/12 00:15:39;;;;;;;9.97;8.70;;;;;;;21.21;100.00;100564.72;4998233;28;20198;-72
2023/07/12 00:18:12;;;;;;;9.77;8.67;;;;;;;21.26;100.00;100554.16;4995519;28;20215;-72
2023/07/12 00:20:37;;;;;;;9.93;8.87;;;;;;;21.26;100.00;100556.75;4997876;28;20219;-72
2023/07/12 00:23:03;;;;;;;11.07;9.03;;;;;;;21.28;100.00;100555.81;4996673;28;20208;-72
2023/07/12 00:25:33;;;;;;;9.40;7.90;;;;;;;21.28;100.00;100542.78;4997303;28;20226;-72
2023/07/12 00:28:00;;;;;;;10.20;7.63;;;;;;;21.39;100.00;100512.09;4996346;28;20191;-72
2023/07/12 00:30:35;;;;;;;10.37;8.10;;;;;;;21.49;100.00;100497.00;4995985;28;20261;-72
2023/07/12 00:33:03;;;;;;;9.30;6.90;;;;;;;21.61;100.00;100463.59;5002354;28;20190;-72
2023/07/12 00:35:30;;;;;;;9.27;6.93;;;;;;;21.61;100.00;100484.44;4999864;28;20216;-72
2023/07/12 00:38:00;;;;;;;10.23;7.37;;;;;;;21.79;100.00;100480.47;5004709;28;20190;-72
2023/07/12 00:40:41;;;;;;;8.30;7.40;;;;;;;21.86;100.00;100505.41;5001526;28;20223;-72
2023/07/12 00:43:42;;;;;;;9.50;7.20;;;;;;;21.76;100.00;100543.13;4999327;28;21015;-72
2023/07/12 00:46:37;;;;;;;13.23;8.07;;;;;;;21.69;100.00;100537.25;4988259;28;20293;-73
2023/07/12 00:49:03;;;;;;;13.87;9.07;;;;;;;21.68;100.00;100545.94;5003994;28;20218;-72
2023/07/12 00:51:29;;;;;;;17.13;9.53;;;;;;;21.65;100.00;100540.81;5008863;28;20198;-72
2023/07/12 00:53:55;;;;;;;12.27;9.63;;;;;;;21.57;100.00;100528.91;5003042;28;20192;-72
2023/07/12 00:56:20;;;;;;;16.07;9.70;;;;;;;21.53;100.00;100511.66;4998352;28;20191;-73
2023/07/12 00:58:52;;;;;;;21.37;10.40;;;;;;;21.44;100.00;100504.97;4999424;28;20199;-73
2023/07/12 01:01:18;;;;;;;16.43;9.53;;;;;;;21.31;100.00;100487.13;4998559;28;20234;-73
2023/07/12 01:03:45;;;;;;;12.83;9.13;;;;;;;21.24;100.00;100503.88;5003339;28;20542;-73
2023/07/12 01:06:14;;;;;;;14.73;9.33;;;;;;;21.11;100.00;100558.06;4999146;28;20227;-72
2023/07/12 01:08:41;;;;;;;16.20;10.37;;;;;;;21.04;100.00;100615.56;5000774;28;20183;-73
2023/07/12 01:11:10;;;;;;;15.73;9.37;;;;;;;20.93;100.00;100600.25;5017388;28;20290;-73
2023/07/12 01:13:38;;;;;;;10.93;9.10;;;;;;;20.95;100.00;100533.34;4998738;28;20653;-72
2023/07/12 01:16:04;;;;;;;11.37;9.53;;;;;;;20.85;100.00;100542.25;4988501;28;20687;-72
2023/07/12 01:18:31;;;;;;;10.83;8.87;;;;;;;20.89;100.00;100566.47;5003244;28;20191;-72
2023/07/12 01:21:09;;;;;;;13.07;8.77;;;;;;;20.89;100.00;100535.22;5005508;28;20222;-72
2023/07/12 01:23:36;;;;;;;9.97;8.50;;;;;;;20.86;100.00;100532.72;4986068;28;20282;-72
2023/07/12 01:26:24;;;;;;;11.23;9.00;;;;;;;20.86;100.00;100536.16;4996893;28;20235;-73
2023/07/12 01:28:55;;;;;;;9.90;8.57;;;;;;;20.83;100.00;100522.38;5003430;28;20191;-72
2023/07/12 01:31:21;;;;;;;11.37;8.67;;;;;;;20.78;100.00;100487.81;5014372;28;20207;-72
2023/07/12 01:33:47;;;;;;;11.70;9.03;;;;;;;20.68;100.00;100473.34;4999523;28;20200;-72
2023/07/12 01:36:13;;;;;;;10.33;8.93;;;;;;;20.73;100.00;100489.69;5015707;28;20207;-73
2023/07/12 01:38:39;;;;;;;10.63;8.60;;;;;;;20.69;100.00;100503.69;5009378;28;20285;-73
2023/07/12 01:41:05;;;;;;;9.40;8.43;;;;;;;20.71;100.00;100500.13;5012371;28;20202;-72
2023/07/12 01:43:31;;;;;;;10.07;8.47;;;;;;;20.73;100.00;100508.75;5005106;28;20641;-72
2023/07/12 01:45:56;;;;;;;12.20;8.17;;;;;;;20.71;100.00;100517.50;4993488;28;20219;-72
2023/07/12 01:48:22;;;;;;;9.33;8.17;;;;;;;20.68;100.00;100561.84;4999742;28;20207;-72
2023/07/12 01:50:47;;;;;;;11.50;8.40;;;;;;;20.65;100.00;100616.56;5003695;28;20246;-73
2023/07/12 01:53:14;;;;;;;11.73;8.70;;;;;;;20.58;100.00;100604.59;4989883;28;20322;-72
2023/07/12 01:55:42;;;;;;;12.90;8.80;;;;;;;20.57;100.00;100614.16;4999414;28;20559;-72
2023/07/12 01:58:07;;;;;;;17.63;8.53;;;;;;;20.52;100.00;100574.38;5014175;28;20209;-73
2023/07/12 02:00:33;;;;;;;11.10;7.77;;;;;;;20.48;100.00;100603.97;4996361;28;20210;-72
2023/07/12 02:02:59;;;;;;;13.10;8.07;;;;;;;20.42;100.00;100634.50;4996324;28;20211;-72
2023/07/12 02:05:25;;;;;;;10.97;8.53;;;;;;;20.31;100.00;100631.31;4997963;28;20728;-72
2023/07/12 02:07:52;;;;;;;12.77;8.40;;;;;;;20.19;100.00;100596.03;5000575;28;20195;-72
2023/07/12 02:10:19;;;;;;;11.87;7.50;;;;;;;20.11;100.00;100584.06;4997003;28;20263;-72
2023/07/12 02:12:45;;;;;;;11.77;6.73;;;;;;;20.12;100.00;100590.97;5002501;28;20258;-72
2023/07/12 02:15:13;;;;;;;12.17;7.20;;;;;;;20.08;100.00;100590.22;5008715;28;20191;-72
2023/07/12 02:17:39;;;;;;;9.30;6.60;;;;;;;20.03;100.00;100596.41;4998356;28;20195;-72
2023/07/12 02:20:05;;;;;;;9.47;5.93;;;;;;;20.00;100.00;100592.09;5006528;28;20625;-73
2023/07/12 02:22:33;;;;;;;7.90;5.53;;;;;;;19.97;100.00;100593.91;5003110;28;20681;-72
2023/07/12 02:24:59;;;;;;;7.73;5.03;;;;;;;19.91;100.00;100602.72;5009521;28;20219;-72
2023/07/12 02:27:25;;;;;;;7.10;4.60;;;;;;;19.80;100.00;100602.09;5010837;28;20253;-73
2023/07/12 02:29:51;;;;;;;9.47;4.47;;;;;;;19.77;100.00;100603.91;5008207;28;20426;-72
2023/07/12 02:32:17;;;;;;;6.97;3.87;;;;;;;19.69;100.00;100614.47;5000502;28;20209;-72
2023/07/12 02:34:42;;;;;;;4.97;3.90;;;;;;;19.66;100.00;100632.72;5002161;28;20195;-72
2023/07/12 02:37:08;;;;;;;5.80;3.27;;;;;;;19.70;100.00;100636.97;4997804;28;20198;-72
2023/07/12 02:39:33;;;;;;;5.77;3.70;;;;;;;19.75;100.00;100671.50;5005705;28;20770;-73
2023/07/12 02:41:59;;;;;;;8.07;3.60;;;;;;;19.73;100.00;100662.03;4994291;28;20716;-72
2023/07/12 02:44:25;;;;;;;3.87;2.83;;;;;;;19.68;100.00;100658.66;4993367;28;20191;-72
2023/07/12 02:46:51;;;;;;;4.93;2.83;;;;;;;19.63;100.00;100665.72;4995337;28;20222;-72
2023/07/12 02:49:16;;;;;;;5.37;3.13;;;;;;;19.61;100.00;100696.91;5000341;28;20218;-72
2023/07/12 02:51:41;;;;;;;4.53;2.47;;;;;;;19.67;100.00;100746.16;5005674;28;20207;-72
2023/07/12 02:54:07;;;;;;;4.37;3.00;;;;;;;19.75;100.00;100772.00;5006598;28;20214;-72
2023/07/12 02:56:32;;;;;;;5.47;2.87;;;;;;;19.76;100.00;100792.75;4997842;28;20222;-72
2023/07/12 02:58:58;;;;;;;7.43;3.70;;;;;;;19.76;100.00;100805.75;4991026;28;20196;-73
2023/07/12 03:01:25;;;;;;;8.33;3.33;;;;;;;19.75;100.00;100790.19;4991298;28;20234;-72
2023/07/12 03:03:53;;;;;;;6.00;2.83;;;;;;;19.66;100.00;100780.84;4996816;28;20218;-72
2023/07/12 03:06:18;;;;;;;6.17;3.07;;;;;;;19.59;100.00;100744.59;4997313;28;20216;-73
2023/07/12 03:08:44;;;;;;;5.67;2.63;;;;;;;19.63;100.00;100725.47;5007148;28;20191;-73
2023/07/12 03:11:10;;;;;;;4.87;2.50;;;;;;;19.62;100.00;100709.00;4994893;28;20291;-73
2023/07/12 03:13:36;;;;;;;3.80;2.50;;;;;;;19.57;100.00;100704.81;4995729;28;20217;-73
2023/07/12 03:16:06;;;;;;;4.93;2.50;;;;;;;19.54;100.00;100664.16;4998971;28;20648;-72
2023/07/12 03:18:32;;;;;;;4.00;2.80;;;;;;;19.54;100.00;100613.94;4999423;28;20648;-74
2023/07/12 03:21:02;;;;;;;2.93;2.63;;;;;;;19.59;100.00;100596.50;4997295;28;20215;-73
2023/07/12 03:23:33;;;;;;;3.77;2.50;;;;;;;19.49;100.00;100563.81;4997017;28;20210;-72
2023/07/12 03:25:59;;;;;;;5.17;2.57;;;;;;;19.46;100.00;100553.47;4995946;28;20640;-73
2023/07/12 03:28:25;;;;;;;3.53;2.20;;;;;;;19.44;100.00;100547.47;4992882;28;20207;-73
2023/07/12 03:31:05;;;;;;;5.27;2.60;;;;;;;19.40;100.00;100564.00;4993899;28;20215;-73
2023/07/12 03:33:31;;;;;;;4.63;2.60;;;;;;;19.40;100.00;100561.41;4998845;28;20191;-73
2023/07/12 03:35:57;;;;;;;4.87;2.50;;;;;;;19.42;100.00;100546.63;5010901;28;20217;-73
2023/07/12 03:38:25;;;;;;;5.17;2.40;;;;;;;19.41;100.00;100545.81;5009316;28;20225;-73
2023/07/12 03:40:51;;;;;;;3.80;2.53;;;;;;;19.40;100.00;100538.03;4997880;28;20241;-73
2023/07/12 03:43:17;;;;;;;3.07;2.40;;;;;;;19.38;100.00;100530.28;4999588;28;20605;-73
2023/07/12 03:45:43;;;;;;;6.27;2.93;;;;;;;19.37;100.00;100536.34;5002747;28;20218;-73
2023/07/12 03:48:08;;;;;;;3.30;2.27;;;;;;;19.41;100.00;100537.13;5004180;28;20653;-73
2023/07/12 03:50:33;;;;;;;3.43;2.57;;;;;;;19.43;100.00;100548.38;5006570;28;20215;-73
2023/07/12 03:52:59;;;;;;;5.20;2.63;;;;;;;19.32;100.00;100558.97;5010448;28;20653;-73
2023/07/12 03:55:24;;;;;;;4.57;2.10;;;;;;;19.34;100.00;100562.38;5005541;28;20252;-73
2023/07/12 03:57:50;;;;;;;4.30;2.53;;;;;;;19.39;100.00;100564.91;4996131;28;20279;-73
2023/07/12 04:00:15;;;;;;;4.20;2.50;;;;;;;19.35;100.00;100555.47;4997876;28;20701;-74
2023/07/12 04:02:41;;;;;;;4.47;2.83;;;;;;;19.39;100.00;100554.50;5007194;28;20264;-73
2023/07/12 04:05:07;;;;;;;4.20;2.40;;;;;;;19.39;100.00;100560.53;5002275;28;20219;-73
2023/07/12 04:07:32;;;;;;;4.20;2.70;;;;;;;19.40;100.00;100561.41;5002068;28;20200;-73
2023/07/12 04:09:58;;;;;;;5.43;2.97;;;;;;;19.41;100.00;100566.59;5003698;28;20239;-73
2023/07/12 04:12:23;;;;;;;5.67;2.87;;;;;;;19.42;100.00;100589.06;4992291;28;20214;-73
2023/07/12 04:14:49;;;;;;;4.43;2.73;;;;;;;19.44;100.00;100592.47;4994471;28;20183;-73
2023/07/12 04:17:15;;;;;;;5.43;3.00;;;;;;;19.43;100.00;100590.75;4993450;28;20203;-73
2023/07/12 04:19:41;;;;;;;3.50;3.20;;;;;;;19.45;100.00;100595.94;5014984;28;20573;-73
2023/07/12 04:22:06;;;;;;;6.30;3.20;;;;;;;19.40;100.00;100593.41;4995045;28;20203;-73
2023/07/12 04:24:32;;;;;;;5.40;3.13;;;;;;;19.48;100.00;100599.31;4993423;28;20211;-73
2023/07/12 04:26:59;;;;;;;4.97;2.77;;;;;;;19.45;100.00;100616.72;4996388;28;20274;-73
2023/07/12 04:29:26;;;;;;;4.47;2.77;;;;;;;19.46;100.00;100632.28;4988218;28;20220;-73
2023/07/12 04:31:52;;;;;;;5.17;2.90;;;;;;;19.44;100.00;100638.38;5011203;28;20242;-73
2023/07/12 04:34:17;;;;;;;3.80;2.90;;;;;;;19.42;100.00;100653.13;4994949;28;20227;-73
2023/07/12 04:36:43;;;;;;;3.43;3.13;;;;;;;19.40;100.00;100689.53;5002783;28;20195;-73
2023/07/12 04:39:08;;;;;;;3.73;3.10;;;;;;;19.42;100.00;100677.38;4990822;28;20638;-73
2023/07/12 04:41:34;;;;;;;4.60;3.10;;;;;;;19.45;100.00;100677.34;4987888;28;20668;-73
2023/07/12 04:44:01;;;;;;;3.00;2.70;;;;;;;19.48;100.00;100671.22;4989028;28;20184;-73
2023/07/12 04:46:27;;;;;;;3.87;2.67;;;;;;;19.47;100.00;100672.06;4992177;28;20223;-73
2023/07/12 04:48:52;;;;;;;3.70;2.60;;;;;;;19.49;100.00;100676.34;4994245;28;20278;-73
2023/07/12 04:51:18;;;;;;;3.07;2.53;;;;;;;19.52;100.00;100686.69;4989864;28;20274;-73
2023/07/12 04:53:47;;;;;;;4.20;2.60;;;;;;;19.56;100.00;100685.75;4986358;28;20642;-73
2023/07/12 04:56:14;;;;;;;4.27;3.00;;;;;;;19.50;100.00;100701.47;5004157;28;20196;-73
2023/07/12 04:58:40;;;;;;;4.30;2.70;;;;;;;19.58;100.00;100704.75;4990128;28;20628;-73
2023/07/12 05:01:05;;;;;;;4.03;2.90;;;;;;;19.64;100.00;100702.06;4995148;28;20290;-73
2023/07/12 05:03:31;;;;;;;3.20;2.23;;;;;;;19.69;100.00;100694.16;4988982;28;20723;-73
2023/07/12 05:05:58;;;;;;;3.63;2.47;;;;;;;19.72;100.00;100697.53;4994015;28;20259;-73
2023/07/12 05:08:24;;;;;;;4.17;2.37;;;;;;;19.89;100.00;100692.88;4988142;28;20277;-73
2023/07/12 05:10:49;;;;;;;3.83;2.70;;;;;;;19.83;100.00;100710.34;4997210;28;20251;-73
2023/07/12 05:13:15;;;;;;;2.63;2.33;;;;;;;19.69;100.00;100709.75;4990518;28;20767;-73
2023/07/12 05:15:45;;;;;;;3.90;2.53;;;;;;;19.63;100.00;100720.28;4992863;28;20204;-73
2023/07/12 05:18:10;;;;;;;4.00;2.80;;;;;;;19.65;100.00;100734.94;4994811;28;20572;-73
2023/07/12 05:20:36;;;;;;;7.17;3.23;;;;;;;19.74;100.00;100733.91;4992605;28;20222;-73
2023/07/12 05:23:03;;;;;;;4.13;3.50;;;;;;;19.60;100.00;100748.91;5002503;28;20807;-72
2023/07/12 05:25:28;;;;;;;4.17;3.40;;;;;;;19.63;100.00;100751.47;4987552;28;20220;-73
2023/07/12 05:27:54;;;;;;;4.30;3.00;;;;;;;19.52;100.00;100763.78;4996797;28;20206;-72
2023/07/12 05:30:20;;;;;;;3.90;3.40;;;;;;;19.44;100.00;100778.66;4995363;28;20710;-73
2023/07/12 05:32:45;;;;;;;5.70;3.50;;;;;;;19.46;100.00;100769.09;5003130;28;20956;-73
2023/07/12 05:35:10;;;;;;;5.13;3.20;;;;;;;19.43;100.00;100774.34;5006862;28;20606;-73
2023/07/12 05:37:36;;;;;;;5.33;3.20;;;;;;;19.39;100.00;100789.13;5004912;28;20192;-73
2023/07/12 05:40:02;;;;;;;7.47;3.57;;;;;;;19.43;100.00;100795.97;5001294;28;20591;-73
2023/07/12 05:42:27;;;;;;;3.70;3.30;;;;;;;19.47;100.00;100805.44;5006561;28;20203;-73
2023/07/12 05:44:53;;;;;;;3.67;3.30;;;;;;;19.43;100.00;100808.13;5006287;28;20229;-73
2023/07/12 05:47:18;;;;;;;4.93;3.00;;;;;;;19.52;100.00;100808.81;5001009;28;20227;-73
2023/07/12 05:49:43;;;;;;;5.90;2.80;;;;;;;19.64;100.00;100810.34;5026184;28;20219;-73
2023/07/12 05:52:09;;;;;;;3.10;2.33;;;;;;;19.60;100.00;100816.47;5006218;28;20207;-73
2023/07/12 05:54:34;;;;;;;4.20;2.63;;;;;;;19.64;100.00;100819.00;5005621;28;20273;-73
2023/07/12 05:57:00;;;;;;;4.87;2.97;;;;;;;19.59;100.00;100815.63;5005314;28;20206;-73
2023/07/12 05:59:25;;;;;;;3.80;2.60;;;;;;;19.59;100.00;100806.97;5004743;28;20310;-73
2023/07/12 06:01:51;;;;;;;3.10;2.80;;;;;;;19.57;100.00;100817.38;5001640;28;20198;-74
2023/07/12 06:04:16;;;;;;;3.93;2.93;;;;;;;19.63;100.00;100830.25;5009489;28;20203;-73
2023/07/12 06:06:42;;;;;;;3.27;2.90;;;;;;;19.66;100.00;100822.41;5002096;28;20221;-72
2023/07/12 06:09:07;;;;;;;4.63;2.77;;;;;;;19.73;100.00;100798.03;5001919;28;20230;-73
2023/07/12 06:11:33;;;;;;;4.03;2.97;;;;;;;19.79;100.00;100786.66;4996172;28;20195;-74
2023/07/12 06:13:59;;;;;;;3.93;2.70;;;;;;;19.94;100.00;100784.63;5004982;28;20277;-73
2023/07/12 06:16:24;;;;;;;4.13;3.53;;;;;;;20.15;100.00;100791.16;4999998;28;20196;-73
2023/07/12 06:18:49;;;;;;;3.77;3.27;;;;;;;20.34;100.00;100800.31;5005026;28;20233;-73
2023/07/12 06:21:15;;;;;;;3.83;3.27;;;;;;;20.43;100.00;100798.38;5005702;28;20213;-73
2023/07/12 06:23:42;;;;;;;3.80;3.37;;;;;;;20.33;100.00;100803.78;5002866;28;20650;-72
2023/07/12 06:26:07;;;;;;;5.23;3.00;;;;;;;20.53;100.00;100799.88;5002348;28;20227;-72
2023/07/12 06:28:33;;;;;;;3.73;3.00;;;;;;;20.35;100.00;100815.00;5002032;28;20665;-73
2023/07/12 06:31:01;;;;;;;3.63;3.30;;;;;;;20.40;100.00;100819.25;5004570;28;20224;-73
2023/07/12 06:33:26;;;;;;;5.73;3.40;;;;;;;20.49;100.00;100800.00;5000278;28;20767;-72
2023/07/12 06:35:52;;;;;;;4.00;3.00;;;;;;;20.50;100.00;100797.34;4988868;28;20273;-73
2023/07/12 06:38:17;;;;;;;5.70;3.57;;;;;;;20.60;100.00;100796.25;5005399;28;20195;-72
2023/07/12 06:40:45;;;;;;;3.83;3.40;;;;;;;20.45;100.00;100798.34;5006132;28;20315;-72
2023/07/12 06:43:12;;;;;;;4.20;3.37;;;;;;;20.40;100.00;100806.22;4996582;28;20195;-72
2023/07/12 06:45:37;;;;;;;5.00;3.53;;;;;;;20.42;100.00;100822.69;5007096;28;20719;-73
2023/07/12 06:48:03;;;;;;;4.67;3.50;;;;;;;20.45;100.00;100814.78;5003439;28;20194;-73
2023/07/12 06:50:29;;;;;;;5.20;4.10;;;;;;;20.55;100.00;100815.47;5011096;28;20273;-73
2023/07/12 06:52:54;;;;;;;5.17;4.63;;;;;;;20.55;100.00;100811.09;5001331;28;20198;-73
2023/07/12 06:55:19;;;;;;;5.97;4.70;;;;;;;20.46;100.00;100816.50;5004651;28;20195;-73
2023/07/12 06:57:45;;;;;;;5.67;4.40;;;;;;;20.53;100.00;100802.47;4997796;28;20197;-73
2023/07/12 07:00:12;;;;;;;5.10;4.43;;;;;;;20.71;100.00;100777.78;5004971;28;20591;-72
2023/07/12 07:02:37;;;;;;;5.23;4.83;;;;;;;20.75;100.00;100823.69;5010682;28;20217;-72
2023/07/12 07:05:04;;;;;;;5.33;4.83;;;;;;;20.93;100.00;100813.75;5003249;28;20685;-72
2023/07/12 07:07:29;;;;;;;6.60;5.30;;;;;;;21.06;100.00;100806.50;5006380;28;20210;-72
2023/07/12 07:09:55;;;;;;;6.50;4.83;;;;;;;21.18;100.00;100808.81;4998908;28;20218;-73
2023/07/12 07:12:20;;;;;;;5.43;5.00;;;;;;;21.54;100.00;100845.25;4999121;28;20202;-72
2023/07/12 07:14:46;;;;;;;5.20;4.70;;;;;;;21.51;100.00;100837.50;5013058;28;20775;-72
2023/07/12 07:17:11;;;;;;;5.17;4.33;;;;;;;21.62;100.00;100852.88;5014628;28;20285;-72
2023/07/12 07:19:37;;;;;;;5.10;4.50;;;;;;;21.07;100.00;100829.91;4996071;28;20603;-72
2023/07/12 07:22:04;;;;;;;5.13;4.07;;;;;;;21.40;100.00;100842.13;5007298;28;20717;-72
2023/07/12 07:24:29;;;;;;;4.93;4.03;;;;;;;21.21;100.00;100833.06;5004542;28;20227;-72
2023/07/12 07:26:55;;;;;;;4.50;4.00;;;;;;;21.17;100.00;100856.59;5003855;28;20230;-72
2023/07/12 07:29:20;;;;;;;4.47;3.80;;;;;;;20.97;100.00;100837.97;5008045;28;20223;-72
2023/07/12 07:31:46;;;;;;;4.67;3.30;;;;;;;21.51;100.00;100853.13;5004909;28;20188;-72
2023/07/12 07:34:11;;;;;;;4.70;3.40;;;;;;;21.57;100.00;100858.22;5003112;28;20207;-72
2023/07/12 07:36:37;;;;;;;3.83;2.70;;;;;;;21.68;100.00;100853.56;5002844;28;20195;-72
2023/07/12 07:39:03;;;;;;;3.60;3.07;;;;;;;22.07;100.00;100862.13;4998302;28;20249;-72
2023/07/12 07:41:28;;;;;;;4.53;2.40;;;;;;;22.15;100.00;100870.59;4998850;28;20603;-72
2023/07/12 07:43:54;;;;;;;6.70;2.43;;;;;;;22.76;100.00;100875.81;5010316;28;20195;-72
2023/07/12 07:46:19;;;;;;;1.97;1.57;;;;;;;22.79;100.00;100849.59;5010161;28;20591;-72
2023/07/12 07:48:45;;;;;;;3.40;1.70;;;;;;;22.57;100.00;100866.81;4995180;28;20714;-74
2023/07/12 07:51:12;;;;;;;3.37;1.60;;;;;;;22.81;100.00;100850.44;5002837;28;20190;-73
2023/07/12 07:53:37;;;;;;;3.57;1.60;;;;;;;22.54;100.00;100859.06;5007614;28;20285;-72
2023/07/12 07:56:03;;;;;;;1.73;1.53;;;;;;;23.05;100.00;100840.94;4996502;28;20286;-72
2023/07/12 07:58:29;;;;;;;2.00;1.40;;;;;;;23.19;100.00;100838.78;5006680;28;20204;-72
2023/07/12 08:00:54;;;;;;;2.47;1.70;;;;;;;22.74;100.00;100812.31;5007438;28;20214;-72
2023/07/12 08:03:19;;;;;;;2.73;1.40;;;;;;;22.81;100.00;100806.03;5001327;28;20236;-72
2023/07/12 08:05:45;;;;;;;2.67;1.30;;;;;;;22.82;100.00;100809.47;5007676;28;20207;-72
2023/07/12 08:08:12;;;;;;;4.13;1.90;;;;;;;23.03;100.00;100824.47;4998882;28;20677;-72
2023/07/12 08:10:38;;;;;;;5.30;1.87;;;;;;;23.66;100.00;100853.78;4999711;28;20230;-72
2023/07/12 08:13:03;;;;;;;3.70;1.90;;;;;;;23.71;100.00;100800.41;5001131;28;20571;-72
2023/07/12 08:15:29;;;;;;;2.57;1.60;;;;;;;23.73;100.00;100782.03;4997770;28;20570;-72
2023/07/12 08:17:55;;;;;;;3.57;1.50;;;;;;;23.65;100.00;100768.38;5020448;28;20273;-72
2023/07/12 08:20:22;;;;;;;2.43;1.73;;;;;;;23.02;100.00;100821.00;4996671;28;20569;-73
2023/07/12 08:22:48;;;;;;;3.47;1.73;;;;;;;23.54;100.00;100818.44;4987564;28;20206;-72
2023/07/12 08:25:14;;;;;;;2.57;1.60;;;;;;;23.17;100.00;100804.84;4998182;28;20232;-73
2023/07/12 08:27:40;;;;;;;3.27;1.70;;;;;;;22.70;100.00;100797.66;5002596;28;20195;-72
2023/07/12 08:30:06;;;;;;;2.10;1.80;;;;;;;22.80;100.00;100833.03;5004058;28;20214;-72
2023/07/12 08:32:33;;;;;;;4.53;1.80;;;;;;;23.19;100.00;100803.06;5002149;28;20195;-72
2023/07/12 08:35:00;;;;;;;2.27;1.70;;;;;;;23.71;100.00;100810.84;4989487;28;20214;-72
2023/07/12 08:37:27;;;;;;;2.43;1.73;;;;;;;23.53;100.00;100814.09;4995250;28;20214;-72
2023/07/12 08:39:53;;;;;;;2.90;1.80;;;;;;;23.22;100.00;100829.13;4995063;28;20577;-72
2023/07/12 08:42:22;;;;;;;2.90;1.60;;;;;;;23.46;100.00;100778.63;4995009;28;20198;-72
2023/07/12 08:44:48;;;;;;;2.40;1.63;;;;;;;22.98;100.00;100824.63;4998106;28;20191;-72
2023/07/12 08:47:22;;;;;;;3.03;1.40;;;;;;;23.81;100.00;100767.75;4992794;28;20207;-73
2023/07/12 08:49:48;;;;;;;2.72;1.55;;;;;;;23.91;100.00;100768.34;4999400;28;20207;-73
2023/07/12 08:52:18;;;;;;;4.97;1.73;;;;;;;23.94;100.00;100791.78;4994976;28;20669;-73
2023/07/12 08:54:44;;;;;;;2.40;1.60;;;;;;;23.84;100.00;100790.38;5000077;28;20681;-73
2023/07/12 08:57:27;;;;;;;4.13;2.03;;;;;;;23.45;100.00;100813.53;5007818;28;20194;-73
2023/07/12 09:00:05;;;;;;;3.03;1.70;;;;;;;23.28;100.00;100813.22;5007006;28;20226;-73
2023/07/12 09:02:31;;;;;;;5.63;1.95;;;;;;;23.65;100.00;100834.63;5003440;28;20277;-73
2023/07/12 09:04:59;;;;;;;2.23;1.60;;;;;;;23.75;100.00;100833.38;4988967;28;20811;-73
2023/07/12 09:07:31;;;;;;;3.95;1.80;;;;;;;23.74;100.00;100809.91;4995328;28;20691;-73
2023/07/12 09:09:59;;;;;;;4.82;1.88;;;;;;;23.73;100.00;100839.59;5002016;28;20210;-73
2023/07/12 09:12:34;;;;;;;2.70;1.70;;;;;;;24.24;100.00;100795.88;4999614;28;20250;-73
2023/07/12 09:15:04;;;;;;;3.50;1.98;;;;;;;24.12;100.00;100784.09;5005609;28;20279;-73
2023/07/12 09:17:42;;;;;;;4.32;2.20;;;;;;;23.95;100.00;100807.44;5000389;28;20187;-73
2023/07/12 09:20:37;;;;;;;4.13;2.00;;;;;;;23.71;100.00;100792.53;5000263;28;20222;-73
2023/07/12 09:23:03;;;;;;;4.60;1.80;;;;;;;24.50;100.00;100801.84;4994598;28;20207;-73
2023/07/12 09:25:37;;;;;;;3.45;1.83;;;;;;;24.36;100.00;100819.00;5001622;28;20709;-73
2023/07/12 09:28:03;;;;;;;3.90;1.92;;;;;;;24.05;100.00;100800.09;5003277;28;20723;-73
2023/07/12 09:30:33;;;;;;;7.60;2.30;;;;;;;23.09;100.00;100819.91;5001290;28;20220;-73
2023/07/12 09:33:03;;;;;;;4.83;1.87;;;;;;;23.88;100.00;100808.50;4997598;28;20197;-73
2023/07/12 09:35:45;;;;;;;4.13;1.80;;;;;;;24.69;100.00;100831.72;4999493;28;20257;-72
2023/07/12 09:38:17;;;;;;;4.25;1.60;;;;;;;25.05;100.00;100845.16;5009264;28;20207;-73
2023/07/12 09:40:48;;;;;;;4.63;1.98;;;;;;;23.92;100.00;100786.59;4999755;28;20223;-72
2023/07/12 09:43:27;;;;;;;6.30;1.67;;;;;;;24.36;100.00;100811.16;5017480;28;20202;-72
2023/07/12 09:46:06;;;;;;;4.88;2.03;;;;;;;23.89;100.00;100815.44;5000806;28;20216;-73
2023/07/12 09:48:42;;;;;;;3.42;1.90;;;;;;;23.95;100.00;100822.28;5001744;28;20195;-72
2023/07/12 09:51:28;;;;;;;3.90;1.90;;;;;;;23.97;100.00;100795.13;5002431;28;20214;-72
2023/07/12 09:54:11;;;;;;;6.40;2.08;;;;;;;24.46;100.00;100813.38;5003430;28;20199;-73
2023/07/12 09:56:47;;;;;;;4.20;1.58;;;;;;;25.24;100.00;100789.25;4993668;28;20200;-72
2023/07/12 09:59:18;;;;;;;3.85;1.83;;;;;;;25.40;100.00;100782.50;5002539;28;20703;-73
2023/07/12 10:01:56;;;;;;;4.72;2.28;;;;;;;25.55;100.00;100765.28;4998834;28;21013;-73
2023/07/12 10:04:31;;;;;;;2.95;1.75;;;;;;;25.91;100.00;100761.88;5005179;28;20201;-72
2023/07/12 10:06:56;;;;;;;4.50;2.20;;;;;;;24.93;100.00;100744.28;5007875;28;20221;-72
2023/07/12 10:09:27;;;;;;;6.93;2.75;;;;;;;24.97;100.00;100756.34;4999571;28;20211;-72
2023/07/12 10:12:06;;;;;;;3.47;2.05;;;;;;;25.68;96.59;100735.78;4994622;28;20562;-72
2023/07/12 10:14:35;;;;;;;4.60;2.60;;;;;;;26.06;97.00;100728.88;5011327;28;20290;-72
2023/07/12 10:17:01;;;;;;;4.80;2.40;;;;;;;26.27;93.24;100733.97;5005852;28;20186;-73
2023/07/12 10:19:34;;;;;;;7.10;2.63;;;;;;;24.59;99.39;100736.03;5001463;28;20635;-73
2023/07/12 10:22:11;;;;;;;4.28;2.17;;;;;;;24.54;100.00;100769.38;5017708;28;20230;-72
2023/07/12 10:24:42;;;;;;;5.63;2.42;;;;;;;24.86;100.00;100766.38;5005870;28;20728;-72
2023/07/12 10:27:26;;;;;;;5.65;1.90;;;;;;;24.85;100.00;100748.97;5004563;28;20727;-72
2023/07/12 10:30:00;;;;;;;4.57;2.25;;;;;;;25.76;100.00;100777.44;4999747;28;20215;-73
2023/07/12 10:32:31;;;;;;;5.70;2.50;;;;;;;25.28;96.75;100732.34;4997128;28;20203;-72
2023/07/12 10:35:08;;;;;;;4.75;1.92;;;;;;;25.99;93.56;100730.91;4997612;28;20243;-73
2023/07/12 10:37:40;;;;;;;5.95;2.10;;;;;;;24.81;100.00;100754.41;5009347;28;20211;-73
2023/07/12 10:40:14;;;;;;;4.55;1.98;;;;;;;25.37;100.00;100776.53;5008814;28;20226;-72
2023/07/12 10:42:44;;;;;;;4.78;2.20;;;;;;;26.23;96.00;100771.81;5000812;28;20206;-73
2023/07/12 10:45:18;;;;;;;4.88;2.30;;;;;;;24.78;100.00;100778.97;5006842;28;20222;-72
2023/07/12 10:47:44;;;;;;;5.35;2.28;;;;;;;24.43;100.00;100789.03;5003595;28;20250;-72
2023/07/12 10:50:32;;;;;;;7.18;2.22;;;;;;;25.21;100.00;100802.53;5005246;28;20219;-72
2023/07/12 10:53:14;;;;;;;6.20;2.45;;;;;;;25.30;100.00;100794.31;5001051;28;20572;-72
2023/07/12 10:55:43;;;;;;;4.70;1.92;;;;;;;25.07;100.00;100776.00;4989609;28;20648;-73
2023/07/12 10:58:24;;;;;;;7.50;2.40;;;;;;;24.42;100.00;100787.34;5008721;28;20717;-72
2023/07/12 11:00:59;;;;;;;4.65;2.03;;;;;;;24.98;100.00;100806.97;5001082;28;20219;-73
2023/07/12 11:03:41;;;;;;;3.70;1.80;;;;;;;25.76;100.00;100793.19;5002452;28;20199;-73
2023/07/12 11:06:23;;;;;;;6.18;2.22;;;;;;;25.23;98.04;100763.97;4998877;28;20296;-73
2023/07/12 11:09:01;;;;;;;4.57;1.98;;;;;;;25.42;94.00;100749.19;5006751;28;20221;-73
2023/07/12 11:11:35;;;;;;;4.55;1.80;;;;;;;25.74;96.81;100782.75;5003517;28;20657;-72
2023/07/12 11:14:20;;;;;;;3.67;1.92;;;;;;;25.63;94.71;100785.00;5008538;28;20547;-73
2023/07/12 11:17:06;;;;;;;2.80;1.83;;;;;;;25.04;96.32;100764.81;5008273;28;21068;-72
2023/07/12 11:19:40;;;;;;;4.50;2.38;;;;;;;26.20;92.07;100785.06;4995432;28;20227;-72
2023/07/12 11:22:18;;;;;;;4.22;1.85;;;;;;;25.90;91.90;100764.56;5000073;28;20233;-72